Time;durP1;ratioP1;P1;durP2;ratioP2;P2;SDS_P1;SDS_P2;PMS_P1;PMS_P2;Temp;Humidity;BMP_temperature;BMP_pressure;BME280_temperature;BME280_humidity;BME280_pressure;Samples;Min_cycle;Max_cycle;Signal;HPM_P1;HPM_P2
2023/08/26 00:02:07;;;;;;;11.20;6.60;;;;;;;21.29;92.98;97436.05;106973;1278;24301;-82
2023/08/26 00:04:35;;;;;;;8.50;6.20;;;;;;;21.13;93.65;97414.18;106883;1280;22539;-81
2023/08/26 00:07:03;;;;;;;13.70;6.60;;;;;;;21.30;94.00;97431.38;106869;1277;22745;-82
2023/08/26 00:09:31;;;;;;;11.50;7.60;;;;;;;21.36;94.14;97435.66;106932;1268;22601;-82
2023/08/26 00:11:59;;;;;;;9.20;6.40;;;;;;;21.40;93.96;97441.02;106929;1267;22595;-81
2023/08/26 00:14:30;;;;;;;10.60;6.60;;;;;;;21.41;94.20;97447.61;106986;1269;22541;-81
2023/08/26 00:16:58;;;;;;;9.90;7.10;;;;;;;21.36;94.37;97440.20;106949;1261;22537;-82
2023/08/26 00:19:26;;;;;;;10.60;7.50;;;;;;;21.45;94.86;97452.19;107332;1264;22773;-82
2023/08/26 00:21:54;;;;;;;9.90;6.40;;;;;;;21.41;95.69;97440.17;106983;1279;24033;-83
2023/08/26 00:24:22;;;;;;;11.50;7.10;;;;;;;21.36;95.34;97427.83;106961;1276;22530;-82
2023/08/26 00:26:50;;;;;;;10.90;7.20;;;;;;;21.36;95.09;97433.23;106959;1270;23346;-80
2023/08/26 00:29:18;;;;;;;9.10;7.10;;;;;;;21.36;95.23;97436.05;106756;1279;184873;-82
2023/08/26 00:31:46;;;;;;;10.00;6.50;;;;;;;21.31;95.77;97439.77;106955;1279;25390;-81
2023/08/26 00:34:15;;;;;;;12.20;6.90;;;;;;;21.25;96.37;97432.90;106940;1269;22606;-80
2023/08/26 00:36:43;;;;;;;11.90;7.50;;;;;;;21.19;96.41;97432.16;107420;1278;22545;-81
2023/08/26 00:39:12;;;;;;;10.60;7.10;;;;;;;21.13;96.98;97431.25;108924;1279;22585;-82
2023/08/26 00:41:40;;;;;;;10.20;6.30;;;;;;;21.05;97.87;97434.95;108142;1264;22566;-80
2023/08/26 00:44:10;;;;;;;9.10;6.70;;;;;;;21.00;97.32;97432.23;109008;1262;22546;-81
2023/08/26 00:46:38;;;;;;;8.90;6.80;;;;;;;20.88;97.97;97416.55;107667;1278;22534;-81
2023/08/26 00:49:07;;;;;;;10.10;6.10;;;;;;;20.93;98.25;97432.57;107134;1278;22764;-81
2023/08/26 00:51:36;;;;;;;11.70;6.60;;;;;;;20.85;98.85;97430.02;107430;1278;25472;-81
2023/08/26 00:54:08;;;;;;;10.50;6.90;;;;;;;20.81;98.21;97432.70;106984;1274;22524;-80
2023/08/26 00:56:36;;;;;;;10.90;6.70;;;;;;;20.76;98.73;97433.67;106928;1264;25274;-80
2023/08/26 00:59:04;;;;;;;7.00;6.30;;;;;;;20.69;98.56;97441.27;106954;1269;22838;-80
2023/08/26 01:01:34;;;;;;;11.30;6.40;;;;;;;20.68;98.65;97448.54;106973;1264;22765;-80
2023/08/26 01:04:05;;;;;;;8.60;6.60;;;;;;;20.71;98.58;97449.59;106944;1264;22603;-81
2023/08/26 01:06:35;;;;;;;9.60;6.60;;;;;;;20.72;98.72;97454.91;106919;1279;23886;-80
2023/08/26 01:09:03;;;;;;;10.10;6.80;;;;;;;20.69;98.85;97448.09;106951;1269;23820;-80
2023/08/26 01:11:39;;;;;;;8.80;6.80;;;;;;;20.69;98.86;97450.51;106910;1279;22710;-81
2023/08/26 01:14:19;;;;;;;8.60;6.80;;;;;;;20.65;98.81;97453.20;106717;1262;23012;-81
2023/08/26 01:16:48;;;;;;;8.80;6.40;;;;;;;20.56;99.61;97458.96;106945;1274;25315;-86
2023/08/26 01:19:44;;;;;;;9.10;6.60;;;;;;;20.52;100.00;97458.27;106959;1279;22533;-85
2023/08/26 01:22:15;;;;;;;8.40;6.20;;;;;;;20.61;100.00;97455.20;106918;1279;24224;-84
2023/08/26 01:24:44;;;;;;;10.60;7.20;;;;;;;20.72;100.00;97455.30;107144;1274;25322;-84
2023/08/26 01:27:12;;;;;;;8.00;6.10;;;;;;;20.79;100.00;97453.73;106913;1280;24289;-84
2023/08/26 01:29:42;;;;;;;9.50;6.20;;;;;;;20.85;100.00;97450.42;106992;1279;23455;-85
2023/08/26 01:32:19;;;;;;;9.40;7.00;;;;;;;20.90;100.00;97447.73;106891;1279;24317;-84
2023/08/26 01:34:52;;;;;;;8.20;6.60;;;;;;;20.95;100.00;97447.15;106850;1280;22550;-84
2023/08/26 01:37:22;;;;;;;7.70;6.40;;;;;;;20.98;100.00;97449.44;106925;1276;24261;-85
2023/08/26 01:39:53;;;;;;;10.10;7.50;;;;;;;20.99;100.00;97449.76;106817;1279;25380;-84
2023/08/26 01:42:24;;;;;;;8.70;6.40;;;;;;;20.99;100.00;97446.79;106907;1279;22568;-84
2023/08/26 01:44:53;;;;;;;7.00;5.70;;;;;;;20.96;100.00;97444.42;106962;1279;22652;-85
2023/08/26 01:47:21;;;;;;;8.10;6.60;;;;;;;21.00;100.00;97439.98;106974;1264;22578;-86
2023/08/26 01:49:51;;;;;;;15.60;6.50;;;;;;;21.03;100.00;97435.63;106896;1277;22910;-83
2023/08/26 01:52:19;;;;;;;8.40;6.40;;;;;;;21.04;100.00;97431.42;106841;1273;22564;-83
2023/08/26 01:54:49;;;;;;;9.60;6.30;;;;;;;21.04;100.00;97429.08;106992;1272;22580;-83
2023/08/26 01:57:18;;;;;;;10.20;6.70;;;;;;;21.02;100.00;97428.58;106983;1273;22679;-83
2023/08/26 01:59:46;;;;;;;6.90;5.80;;;;;;;20.95;100.00;97431.02;106788;1279;22772;-83
2023/08/26 02:02:14;;;;;;;7.20;6.30;;;;;;;20.91;100.00;97430.84;106913;1274;22539;-83
2023/08/26 02:04:42;;;;;;;7.40;6.30;;;;;;;20.80;100.00;97431.21;106929;1279;25476;-84
2023/08/26 02:07:10;;;;;;;8.70;6.80;;;;;;;20.73;100.00;97431.45;107148;1272;22532;-83
2023/08/26 02:09:38;;;;;;;13.70;7.60;;;;;;;20.70;100.00;97432.52;107603;1270;22605;-82
2023/08/26 02:12:07;;;;;;;8.70;6.70;;;;;;;20.67;100.00;97433.91;107015;1279;22540;-84
2023/08/26 02:14:35;;;;;;;7.40;6.30;;;;;;;20.66;100.00;97427.23;106954;1279;22535;-84
2023/08/26 02:17:03;;;;;;;9.50;6.20;;;;;;;20.65;100.00;97424.35;106846;1279;24232;-83
2023/08/26 02:19:31;;;;;;;7.60;5.70;;;;;;;20.69;100.00;97424.77;106696;1275;24507;-83
2023/08/26 02:22:00;;;;;;;9.80;6.20;;;;;;;20.67;100.00;97420.52;106780;1275;22640;-85
2023/08/26 02:24:29;;;;;;;12.50;6.80;;;;;;;20.69;100.00;97420.55;106684;1280;24263;-83
2023/08/26 02:26:57;;;;;;;10.60;7.10;;;;;;;20.67;100.00;97420.52;106816;1280;22775;-83
2023/08/26 02:29:25;;;;;;;8.00;6.10;;;;;;;20.61;100.00;97434.70;106888;1268;22535;-84
2023/08/26 02:31:53;;;;;;;6.80;6.10;;;;;;;20.63;100.00;97435.27;106886;1276;23147;-84
2023/08/26 02:34:21;;;;;;;7.10;5.30;;;;;;;20.65;100.00;97428.56;106805;1272;22538;-84
2023/08/26 02:36:49;;;;;;;12.10;6.20;;;;;;;20.66;100.00;97433.58;106890;1266;22756;-83
2023/08/26 02:39:17;;;;;;;8.60;5.90;;;;;;;20.59;100.00;97436.25;106961;1278;24253;-83
2023/08/26 02:41:47;;;;;;;8.70;6.40;;;;;;;20.46;100.00;97438.51;106943;1278;22536;-83
2023/08/26 02:44:15;;;;;;;7.40;5.80;;;;;;;20.33;100.00;97444.86;106776;1261;25461;-84
2023/08/26 02:46:44;;;;;;;9.60;6.10;;;;;;;20.25;100.00;97448.67;106776;1278;22639;-84
2023/08/26 02:49:12;;;;;;;8.50;5.80;;;;;;;20.22;100.00;97450.90;106856;1258;22589;-85
2023/08/26 02:51:42;;;;;;;8.80;5.80;;;;;;;20.17;100.00;97448.89;106969;1270;22540;-85
2023/08/26 02:54:10;;;;;;;8.80;6.20;;;;;;;20.21;100.00;97450.66;106930;1272;22533;-84
2023/08/26 02:56:39;;;;;;;6.10;4.90;;;;;;;20.31;100.00;97447.25;106901;1276;22638;-85
2023/08/26 02:59:07;;;;;;;9.50;5.50;;;;;;;20.46;100.00;97445.01;106788;1279;25360;-85
2023/08/26 03:01:37;;;;;;;8.40;5.90;;;;;;;20.44;100.00;97448.11;107562;1275;22550;-85
2023/08/26 03:04:05;;;;;;;9.20;6.10;;;;;;;20.39;100.00;97451.88;106952;1265;22527;-84
2023/08/26 03:06:33;;;;;;;7.80;5.10;;;;;;;20.33;100.00;97458.46;106827;1279;25316;-85
2023/08/26 03:09:03;;;;;;;8.50;6.00;;;;;;;20.32;100.00;97459.54;106927;1265;25238;-85
2023/08/26 03:11:31;;;;;;;8.60;5.70;;;;;;;20.32;100.00;97454.14;106952;1279;22769;-84
2023/08/26 03:14:00;;;;;;;8.40;5.40;;;;;;;20.23;100.00;97449.35;106955;1269;22527;-84
2023/08/26 03:16:30;;;;;;;6.20;5.00;;;;;;;20.19;100.00;97455.40;106913;1264;25574;-84
2023/08/26 03:18:58;;;;;;;9.70;5.20;;;;;;;20.20;100.00;97454.40;106856;1272;22532;-84
2023/08/26 03:21:28;;;;;;;8.50;5.50;;;;;;;20.23;100.00;97457.87;106859;1279;25577;-84
2023/08/26 03:23:56;;;;;;;7.90;5.40;;;;;;;20.26;100.00;97458.69;106970;1279;22543;-84
2023/08/26 03:26:24;;;;;;;6.40;4.90;;;;;;;20.21;100.00;97462.22;106907;1273;22558;-85
2023/08/26 03:28:53;;;;;;;8.10;5.60;;;;;;;20.16;100.00;97466.09;106771;1265;23307;-84
2023/08/26 03:31:21;;;;;;;8.30;5.30;;;;;;;20.14;100.00;97468.55;106900;1279;25347;-84
2023/08/26 03:33:49;;;;;;;6.40;5.00;;;;;;;20.25;100.00;97470.64;106960;1269;22615;-85
2023/08/26 03:36:18;;;;;;;8.90;5.70;;;;;;;20.38;100.00;97472.66;106912;1279;22821;-84
2023/08/26 03:38:46;;;;;;;8.70;4.90;;;;;;;20.41;100.00;97477.64;106969;1266;22566;-84
2023/08/26 03:41:14;;;;;;;8.00;5.90;;;;;;;20.36;100.00;97475.54;106923;1279;22693;-85
2023/08/26 03:43:42;;;;;;;9.30;5.00;;;;;;;20.20;99.72;97482.68;107304;1273;23711;-84
2023/08/26 03:46:10;;;;;;;9.40;4.80;;;;;;;20.04;100.00;97482.25;107249;1276;24676;-83
2023/08/26 03:49:05;;;;;;;8.80;5.60;;;;;;;20.05;100.00;97479.61;107098;1274;26656;-83
2023/08/26 03:51:33;;;;;;;9.30;5.20;;;;;;;19.99;100.00;97480.93;106867;1272;22779;-83
2023/08/26 03:54:01;;;;;;;9.00;5.10;;;;;;;19.98;100.00;97482.24;106990;1273;22532;-83
2023/08/26 03:56:29;;;;;;;6.80;5.30;;;;;;;19.92;100.00;97486.87;107109;1272;22602;-84
2023/08/26 03:58:57;;;;;;;9.70;5.80;;;;;;;19.84;100.00;97490.27;107884;1278;22549;-85
2023/08/26 04:01:25;;;;;;;8.20;5.40;;;;;;;19.81;100.00;97491.31;107104;1279;22619;-84
2023/08/26 04:03:54;;;;;;;10.20;5.50;;;;;;;19.78;100.00;97492.30;107026;1278;22526;-84
2023/08/26 04:06:22;;;;;;;10.60;6.30;;;;;;;19.73;100.00;97495.50;107027;1264;25599;-84
2023/08/26 04:08:51;;;;;;;8.70;5.60;;;;;;;19.63;100.00;97500.80;107079;1278;25237;-84
2023/08/26 04:11:19;;;;;;;13.90;5.60;;;;;;;19.60;100.00;97500.13;106971;1276;25814;-84
2023/08/26 04:13:47;;;;;;;8.20;5.70;;;;;;;19.60;100.00;97498.02;107283;1275;22563;-85
2023/08/26 04:16:16;;;;;;;9.90;6.50;;;;;;;19.62;100.00;97497.73;107218;1275;24314;-84
2023/08/26 04:18:44;;;;;;;7.60;5.50;;;;;;;19.59;100.00;97499.48;107321;1272;22583;-85
2023/08/26 04:21:12;;;;;;;8.10;5.90;;;;;;;19.59;100.00;97496.90;107244;1270;25370;-85
2023/08/26 04:23:41;;;;;;;7.90;5.00;;;;;;;19.65;100.00;97491.08;108108;1272;22154;-85
2023/08/26 04:26:09;;;;;;;8.70;5.00;;;;;;;19.73;100.00;97492.08;108856;1279;22548;-85
2023/08/26 04:28:51;;;;;;;13.20;6.40;;;;;;;19.85;100.00;97493.33;109101;1277;22674;-85
2023/08/26 04:31:19;;;;;;;6.40;5.10;;;;;;;19.80;100.00;97496.93;108429;1279;22801;-84
2023/08/26 04:33:47;;;;;;;7.90;6.40;;;;;;;19.74;100.00;97501.70;108027;1280;22664;-84
2023/08/26 04:36:15;;;;;;;6.30;4.90;;;;;;;19.73;100.00;97501.14;107209;1280;24380;-84
2023/08/26 04:38:45;;;;;;;6.30;5.50;;;;;;;19.74;100.00;97503.09;107282;1280;22960;-86
2023/08/26 04:41:14;;;;;;;9.80;5.90;;;;;;;19.72;100.00;97501.20;107207;1280;22614;-84
2023/08/26 04:43:42;;;;;;;10.20;5.80;;;;;;;19.75;100.00;97507.17;107361;1278;24263;-85
2023/08/26 04:46:10;;;;;;;9.20;5.50;;;;;;;19.79;100.00;97512.77;107175;1272;26520;-86
2023/08/26 04:48:39;;;;;;;7.00;5.30;;;;;;;19.89;100.00;97508.54;106965;1273;22530;-86
2023/08/26 04:51:08;;;;;;;8.20;6.10;;;;;;;20.10;100.00;97507.81;106938;1279;24253;-86
2023/08/26 04:53:36;;;;;;;7.40;6.00;;;;;;;20.27;100.00;97508.73;106987;1270;23823;-86
2023/08/26 04:56:04;;;;;;;11.40;5.90;;;;;;;20.33;100.00;97513.64;106991;1275;23376;-85
2023/08/26 04:58:32;;;;;;;10.50;6.30;;;;;;;20.35;100.00;97512.35;107038;1275;23650;-85
2023/08/26 05:01:00;;;;;;;8.00;5.10;;;;;;;20.44;100.00;97516.91;106974;1279;22573;-87
2023/08/26 05:03:28;;;;;;;7.40;5.00;;;;;;;20.53;100.00;97513.42;106969;1278;22531;-87
2023/08/26 05:05:56;;;;;;;10.20;6.50;;;;;;;20.61;100.00;97512.52;106800;1279;25331;-87
2023/08/26 05:08:25;;;;;;;8.40;6.80;;;;;;;20.74;100.00;97513.91;106770;1268;22884;-85
2023/08/26 05:10:53;;;;;;;10.80;7.30;;;;;;;20.90;100.00;97516.98;107986;1279;22591;-85
2023/08/26 05:13:21;;;;;;;9.20;5.70;;;;;;;21.03;100.00;97517.17;107215;1265;22543;-90
2023/08/26 05:15:49;;;;;;;11.20;6.10;;;;;;;21.12;100.00;97508.34;107075;1272;22559;-87
2023/08/26 05:18:18;;;;;;;9.10;6.20;;;;;;;21.20;100.00;97504.57;107001;1279;24208;-83
2023/08/26 05:20:46;;;;;;;9.80;7.20;;;;;;;21.30;100.00;97505.13;107090;1265;22744;-84
2023/08/26 05:23:14;;;;;;;9.20;6.30;;;;;;;21.40;100.00;97505.39;107012;1273;25309;-84
2023/08/26 05:25:46;;;;;;;9.70;6.20;;;;;;;21.51;100.00;97501.23;106832;1281;23331;-84
2023/08/26 05:28:14;;;;;;;7.70;4.80;;;;;;;21.63;100.00;97502.42;106971;1273;25428;-84
2023/08/26 05:30:43;;;;;;;8.10;4.70;;;;;;;21.78;100.00;97506.05;106957;1280;22741;-85
2023/08/26 05:33:11;;;;;;;11.50;6.70;;;;;;;21.94;100.00;97505.90;107000;1264;22542;-85
2023/08/26 05:35:39;;;;;;;10.90;5.40;;;;;;;22.07;100.00;97503.78;106865;1279;22533;-85
2023/08/26 05:38:07;;;;;;;8.20;6.20;;;;;;;22.20;100.00;97497.52;106927;1279;25285;-84
2023/08/26 05:40:39;;;;;;;9.50;7.20;;;;;;;22.40;100.00;97494.87;106915;1270;22549;-85
2023/08/26 05:43:07;;;;;;;11.60;7.60;;;;;;;22.56;100.00;97490.69;106712;1279;22630;-84
2023/08/26 05:45:36;;;;;;;7.20;6.00;;;;;;;22.74;100.00;97496.15;106999;1272;22654;-85
2023/08/26 05:48:04;;;;;;;7.80;5.50;;;;;;;22.92;100.00;97497.92;107736;1267;25455;-85
2023/08/26 05:50:32;;;;;;;11.70;6.90;;;;;;;23.06;100.00;97488.62;107143;1279;25609;-85
2023/08/26 05:53:00;;;;;;;10.20;7.10;;;;;;;23.19;100.00;97487.14;107036;1279;22533;-84
2023/08/26 05:55:28;;;;;;;10.30;5.80;;;;;;;23.29;100.00;97489.17;106873;1279;24382;-83
2023/08/26 05:57:56;;;;;;;11.90;7.00;;;;;;;23.40;100.00;97485.34;106983;1280;24366;-83
2023/08/26 06:00:26;;;;;;;8.40;5.40;;;;;;;23.50;100.00;97490.89;107087;1279;22642;-83
2023/08/26 06:02:54;;;;;;;12.60;7.20;;;;;;;23.66;100.00;97490.73;106945;1279;24209;-83
2023/08/26 06:05:23;;;;;;;14.20;7.70;;;;;;;23.79;100.00;97497.81;106973;1274;22520;-84
2023/08/26 06:07:51;;;;;;;10.20;7.60;;;;;;;23.81;100.00;97501.19;106843;1279;24061;-83
2023/08/26 06:10:21;;;;;;;12.20;9.90;;;;;;;23.85;99.92;97502.83;106904;1273;25425;-85
2023/08/26 06:12:49;;;;;;;10.00;7.20;;;;;;;23.84;99.75;97506.52;106987;1275;23343;-84
2023/08/26 06:15:21;;;;;;;11.30;8.30;;;;;;;23.91;99.84;97510.75;106695;1279;25306;-85
2023/08/26 06:17:49;;;;;;;13.90;9.10;;;;;;;23.99;99.33;97510.17;106953;1280;23294;-86
2023/08/26 06:20:20;;;;;;;12.90;8.20;;;;;;;24.01;98.98;97512.62;106938;1278;24040;-86
2023/08/26 06:22:48;;;;;;;12.60;8.00;;;;;;;23.99;98.64;97519.45;106855;1279;24216;-86
2023/08/26 06:25:16;;;;;;;10.10;7.90;;;;;;;23.96;97.53;97516.33;106932;1279;22618;-86
2023/08/26 06:27:45;;;;;;;13.70;7.80;;;;;;;23.95;97.61;97516.56;107074;1279;25502;-86
2023/08/26 06:30:13;;;;;;;14.30;9.20;;;;;;;24.00;97.15;97519.84;106928;1270;23177;-85
2023/08/26 06:32:42;;;;;;;18.10;9.50;;;;;;;24.05;96.88;97530.38;106936;1278;24282;-85
2023/08/26 06:35:10;;;;;;;9.90;6.40;;;;;;;24.12;96.63;97533.13;106809;1273;25683;-85
2023/08/26 06:37:39;;;;;;;13.80;8.90;;;;;;;24.24;96.74;97535.69;107907;1278;25201;-85
2023/08/26 06:40:10;;;;;;;18.40;8.70;;;;;;;24.37;96.08;97535.31;106913;1264;22534;-85
2023/08/26 06:42:38;;;;;;;14.80;9.70;;;;;;;24.39;94.96;97534.44;106894;1279;22559;-85
2023/08/26 06:45:09;;;;;;;11.30;8.00;;;;;;;24.40;93.88;97533.97;106884;1273;24244;-86
2023/08/26 06:47:39;;;;;;;11.20;7.90;;;;;;;24.41;93.43;97537.82;106881;1275;22608;-85
2023/08/26 06:50:08;;;;;;;11.50;8.30;;;;;;;24.45;93.41;97543.42;106834;1279;22504;-86
2023/08/26 06:52:38;;;;;;;11.50;6.70;;;;;;;24.55;92.96;97540.54;106947;1272;22582;-83
2023/08/26 06:55:08;;;;;;;8.70;6.60;;;;;;;24.61;92.20;97545.95;106951;1280;22634;-85
2023/08/26 06:57:37;;;;;;;15.30;7.80;;;;;;;24.64;91.60;97547.51;107004;1279;23141;-86
2023/08/26 07:00:05;;;;;;;12.10;7.90;;;;;;;24.68;91.26;97546.48;107054;1279;23046;-86
2023/08/26 07:02:34;;;;;;;11.10;7.20;;;;;;;24.73;90.52;97548.65;107076;1269;22673;-82
2023/08/26 07:05:05;;;;;;;13.60;8.00;;;;;;;24.78;89.96;97553.11;107064;1279;22596;-88
2023/08/26 07:07:33;;;;;;;9.50;6.50;;;;;;;24.84;88.82;97556.08;106931;1280;22530;-87
2023/08/26 07:10:03;;;;;;;10.30;6.10;;;;;;;24.91;88.97;97552.26;107385;1275;22555;-86
2023/08/26 07:12:31;;;;;;;11.40;6.60;;;;;;;24.96;87.86;97556.73;107336;1270;22488;-84
2023/08/26 07:14:59;;;;;;;11.50;6.20;;;;;;;25.00;86.66;97554.58;107211;1278;22642;-83
2023/08/26 07:17:27;;;;;;;10.30;6.50;;;;;;;25.03;84.93;97562.91;106965;1272;24259;-83
2023/08/26 07:19:56;;;;;;;10.00;5.80;;;;;;;25.07;83.27;97562.41;107044;1279;25420;-83
2023/08/26 07:22:24;;;;;;;8.60;6.20;;;;;;;25.13;84.11;97562.62;107015;1278;23949;-83
2023/08/26 07:24:57;;;;;;;11.70;5.90;;;;;;;25.20;82.95;97562.42;107086;1265;22668;-83
2023/08/26 07:27:25;;;;;;;11.50;6.10;;;;;;;25.33;84.27;97561.63;107061;1272;22571;-83
2023/08/26 07:29:54;;;;;;;8.30;5.90;;;;;;;25.48;83.12;97566.41;107061;1276;22583;-83
2023/08/26 07:32:22;;;;;;;8.30;5.60;;;;;;;25.60;82.25;97568.36;107387;1272;22565;-85
2023/08/26 07:34:52;;;;;;;7.90;5.00;;;;;;;25.70;81.88;97564.34;107132;1272;22590;-80
2023/08/26 07:37:20;;;;;;;8.20;5.70;;;;;;;25.75;79.47;97565.08;107018;1276;22530;-81
2023/08/26 07:39:52;;;;;;;8.20;5.40;;;;;;;25.83;79.99;97566.14;107247;1279;22590;-80
2023/08/26 07:42:20;;;;;;;8.00;5.30;;;;;;;25.92;77.86;97567.10;107099;1264;22658;-80
2023/08/26 07:44:48;;;;;;;10.10;5.00;;;;;;;25.96;78.04;97566.83;107080;1275;25562;-82
2023/08/26 07:47:17;;;;;;;8.60;5.20;;;;;;;26.05;78.15;97563.35;107229;1265;22585;-83
2023/08/26 07:49:45;;;;;;;9.60;4.80;;;;;;;26.16;78.65;97558.95;107259;1279;25481;-86
2023/08/26 07:52:13;;;;;;;7.20;5.20;;;;;;;26.29;78.51;97558.66;107073;1279;22538;-87
2023/08/26 07:54:41;;;;;;;10.60;4.40;;;;;;;26.38;75.97;97564.09;107031;1279;22572;-85
2023/08/26 07:57:09;;;;;;;9.30;4.80;;;;;;;26.44;74.46;97566.55;106972;1268;22620;-87
2023/08/26 07:59:37;;;;;;;8.20;5.10;;;;;;;26.52;74.86;97568.30;106915;1279;24299;-86
2023/08/26 08:02:05;;;;;;;9.10;4.50;;;;;;;26.62;74.39;97570.95;107058;1278;25292;-81
2023/08/26 08:04:33;;;;;;;8.60;4.80;;;;;;;26.72;74.75;97571.84;107570;1272;22589;-83
2023/08/26 08:07:01;;;;;;;8.80;5.40;;;;;;;26.84;75.21;97565.54;107042;1262;22527;-82
2023/08/26 08:09:29;;;;;;;7.50;4.40;;;;;;;26.94;72.02;97570.15;106914;1272;22590;-85
2023/08/26 08:11:57;;;;;;;9.10;4.40;;;;;;;26.92;71.05;97566.05;106936;1279;22530;-84
2023/08/26 08:14:25;;;;;;;9.50;4.40;;;;;;;26.96;72.26;97567.04;108174;1278;24187;-83
2023/08/26 08:16:53;;;;;;;5.60;4.10;;;;;;;27.04;70.05;97568.59;109263;1265;22602;-81
2023/08/26 08:19:21;;;;;;;8.70;4.10;;;;;;;27.07;69.28;97564.84;108014;1270;22599;-80
2023/08/26 08:22:43;;;;;;;7.60;4.60;;;;;;;27.11;69.04;97562.41;108073;1279;23329;-80
2023/08/26 08:25:11;;;;;;;8.40;4.40;;;;;;;27.23;68.95;97564.79;106882;1279;24318;-79
2023/08/26 08:27:39;;;;;;;7.30;4.60;;;;;;;27.25;66.10;97562.31;106959;1279;24250;-81
2023/08/26 08:30:07;;;;;;;9.20;3.90;;;;;;;27.31;67.98;97557.23;106932;1261;25441;-78
2023/08/26 08:32:35;;;;;;;5.20;3.20;;;;;;;27.37;66.34;97559.83;107057;1272;22539;-81
2023/08/26 08:35:04;;;;;;;6.20;3.30;;;;;;;27.44;66.59;97556.66;107020;1277;22660;-81
2023/08/26 08:37:33;;;;;;;7.10;3.80;;;;;;;27.57;66.69;97552.25;107022;1265;25437;-80
2023/08/26 08:40:01;;;;;;;5.00;3.10;;;;;;;27.73;65.87;97550.02;106872;1276;22780;-80
2023/08/26 08:42:32;;;;;;;5.90;3.50;;;;;;;27.83;62.39;97554.46;106982;1279;24264;-81
2023/08/26 08:45:03;;;;;;;5.20;3.30;;;;;;;27.92;63.66;97550.58;106575;1279;22535;-81
2023/08/26 08:47:33;;;;;;;6.50;4.10;;;;;;;28.01;61.64;97548.66;107142;1279;24248;-81
2023/08/26 08:50:01;;;;;;;5.90;4.10;;;;;;;28.06;61.22;97545.02;107050;1268;25419;-80
2023/08/26 08:52:31;;;;;;;6.80;4.60;;;;;;;28.12;61.87;97541.04;106966;1279;22559;-81
2023/08/26 08:54:59;;;;;;;5.40;3.50;;;;;;;28.27;62.13;97542.89;106977;1268;23408;-81
2023/08/26 08:57:32;;;;;;;6.30;3.20;;;;;;;28.34;58.30;97542.36;106640;1268;22757;-81
2023/08/26 09:00:02;;;;;;;7.50;3.60;;;;;;;28.32;58.72;97536.94;106827;1279;24380;-80
2023/08/26 09:02:31;;;;;;;5.40;2.80;;;;;;;28.39;57.45;97534.67;106577;1264;22520;-81
2023/08/26 09:04:59;;;;;;;8.70;3.10;;;;;;;28.38;54.30;97526.27;106969;1279;25252;-81
2023/08/26 09:07:28;;;;;;;4.50;2.90;;;;;;;28.39;56.58;97527.36;106976;1268;22524;-81
2023/08/26 09:09:57;;;;;;;5.40;3.20;;;;;;;28.45;55.25;97526.16;106964;1265;22658;-81
2023/08/26 09:12:29;;;;;;;4.30;3.00;;;;;;;28.53;56.14;97520.79;106852;1270;23103;-81
2023/08/26 09:14:58;;;;;;;4.60;3.00;;;;;;;28.69;57.24;97522.04;106612;1279;25555;-81
2023/08/26 09:17:28;;;;;;;5.70;3.60;;;;;;;28.91;57.73;97527.34;106888;1271;22675;-80
2023/08/26 09:19:59;;;;;;;8.40;3.90;;;;;;;29.07;57.55;97526.84;106527;1268;24269;-81
2023/08/26 09:22:32;;;;;;;6.50;4.10;;;;;;;29.23;58.05;97529.80;106907;1264;23422;-80
2023/08/26 09:25:03;;;;;;;6.30;3.30;;;;;;;29.37;56.83;97531.21;106932;1279;22805;-80
2023/08/26 09:27:41;;;;;;;4.60;3.60;;;;;;;29.51;57.26;97538.27;106944;1264;24239;-81
2023/08/26 09:30:10;;;;;;;5.60;3.40;;;;;;;29.68;55.63;97542.95;107053;1279;22521;-82
2023/08/26 09:32:41;;;;;;;5.50;3.30;;;;;;;29.74;55.15;97540.74;106926;1279;24302;-81
2023/08/26 09:35:14;;;;;;;7.10;3.80;;;;;;;29.78;53.91;97537.55;106984;1265;22667;-83
2023/08/26 09:38:03;;;;;;;6.50;4.10;;;;;;;29.68;55.12;97534.70;106909;1279;24382;-81
2023/08/26 09:40:31;;;;;;;5.60;3.20;;;;;;;29.59;53.71;97535.69;106922;1279;22632;-81
2023/08/26 09:43:03;;;;;;;5.60;3.20;;;;;;;29.47;53.74;97537.16;106946;1279;22608;-81
2023/08/26 09:45:36;;;;;;;8.00;3.60;;;;;;;29.52;54.57;97542.11;106937;1277;22534;-81
2023/08/26 09:48:07;;;;;;;;;;;;;;;29.54;53.82;97544.68;106852;1268;22609;-81
2023/08/26 09:50:36;;;;;;;4.80;3.20;;;;;;;29.55;53.53;97541.88;106941;1279;22583;-81
2023/08/26 09:53:04;;;;;;;6.10;3.80;;;;;;;29.55;53.97;97539.83;106916;1256;23933;-81
2023/08/26 09:55:32;;;;;;;4.50;3.50;;;;;;;29.63;53.16;97541.30;106817;1268;25761;-81
2023/08/26 09:58:00;;;;;;;4.50;3.20;;;;;;;29.66;51.97;97544.59;106852;1279;24357;-81
2023/08/26 10:00:28;;;;;;;6.70;3.40;;;;;;;29.69;51.67;97536.98;106880;1279;24387;-81
2023/08/26 10:03:03;;;;;;;5.50;3.20;;;;;;;29.77;52.27;97525.90;106863;1272;25409;-81
2023/08/26 10:05:37;;;;;;;8.60;3.50;;;;;;;29.82;52.10;97522.11;106935;1264;22775;-81
2023/08/26 10:08:10;;;;;;;7.40;3.30;;;;;;;29.98;51.84;97512.11;106909;1279;22543;-81
2023/08/26 10:11:07;;;;;;;4.80;3.20;;;;;;;30.04;51.87;97511.39;106907;1279;22555;-81
2023/08/26 10:13:37;;;;;;;6.80;3.10;;;;;;;29.99;51.71;97503.02;106960;1279;22613;-80
2023/08/26 10:16:09;;;;;;;5.80;3.30;;;;;;;29.80;51.21;97502.81;106932;1279;22589;-81
2023/08/26 10:18:48;;;;;;;8.00;3.20;;;;;;;29.63;51.76;97496.80;106911;1276;22656;-81
2023/08/26 10:21:17;;;;;;;5.60;3.00;;;;;;;29.62;52.00;97492.08;107048;1268;25485;-81
2023/08/26 10:23:47;;;;;;;5.20;3.30;;;;;;;29.61;51.34;97484.08;106854;1271;23183;-81
2023/08/26 10:26:19;;;;;;;7.40;3.60;;;;;;;29.63;51.21;97477.14;107006;1279;25295;-81
2023/08/26 10:28:48;;;;;;;7.50;3.30;;;;;;;29.58;51.01;97476.92;106979;1279;22615;-81
2023/08/26 10:31:16;;;;;;;6.40;3.80;;;;;;;29.57;51.63;97488.30;107030;1277;22544;-81
2023/08/26 10:34:00;;;;;;;6.40;3.40;;;;;;;29.70;52.01;97496.87;106989;1269;24357;-81
2023/08/26 10:36:28;;;;;;;4.50;3.10;;;;;;;29.88;51.03;97502.75;106990;1265;22556;-81
2023/08/26 10:38:58;;;;;;;5.40;3.20;;;;;;;29.90;49.97;97502.54;106607;1280;22549;-80
2023/08/26 10:41:26;;;;;;;6.20;3.40;;;;;;;29.91;48.78;97516.41;107043;1277;22553;-80
2023/08/26 10:43:58;;;;;;;7.50;3.20;;;;;;;29.83;49.12;97526.93;106935;1268;22542;-81
2023/08/26 10:46:37;;;;;;;7.50;3.50;;;;;;;29.75;48.93;97544.27;106967;1265;24270;-81
2023/08/26 10:49:06;;;;;;;5.00;2.80;;;;;;;29.62;49.52;97546.89;106877;1279;22544;-81
2023/08/26 10:51:37;;;;;;;5.10;2.90;;;;;;;29.43;48.94;97533.61;106957;1264;22568;-81
2023/08/26 10:54:06;;;;;;;5.40;3.40;;;;;;;29.32;48.67;97541.24;106954;1256;22736;-81
2023/08/26 10:56:34;;;;;;;5.80;3.70;;;;;;;29.12;49.43;97533.23;107361;1279;22547;-81
2023/08/26 10:59:06;;;;;;;5.30;3.20;;;;;;;28.96;49.98;97534.04;107176;1279;22690;-81
2023/08/26 11:01:35;;;;;;;7.50;3.80;;;;;;;28.81;50.49;97533.48;107032;1264;22633;-82
2023/08/26 11:04:05;;;;;;;5.80;3.10;;;;;;;28.63;51.32;97526.67;106891;1279;23285;-81
2023/08/26 11:06:37;;;;;;;4.70;3.40;;;;;;;28.52;51.58;97520.33;107009;1256;22731;-81
2023/08/26 11:09:05;;;;;;;8.30;3.90;;;;;;;28.43;52.19;97518.84;106955;1276;22530;-81
2023/08/26 11:11:33;;;;;;;9.10;3.90;;;;;;;28.30;52.53;97526.45;106911;1279;25570;-81
2023/08/26 11:14:01;;;;;;;6.20;3.60;;;;;;;28.19;52.83;97524.20;106898;1279;22543;-81
2023/08/26 11:16:29;;;;;;;7.00;3.70;;;;;;;28.04;52.82;97530.88;107030;1264;22547;-80
2023/08/26 11:18:57;;;;;;;6.40;3.50;;;;;;;27.97;53.28;97542.49;106579;1279;24212;-81
2023/08/26 11:21:26;;;;;;;8.60;4.20;;;;;;;27.84;53.28;97555.45;106734;1279;22586;-80
2023/08/26 11:23:54;;;;;;;5.60;3.70;;;;;;;27.74;53.61;97571.52;107058;1276;22589;-82
2023/08/26 11:26:24;;;;;;;6.30;3.70;;;;;;;27.65;53.83;97583.83;107002;1272;22682;-81
2023/08/26 11:28:52;;;;;;;6.80;4.00;;;;;;;27.56;54.06;97578.35;106958;1280;24228;-80
2023/08/26 11:31:20;;;;;;;6.70;3.50;;;;;;;27.45;54.68;97579.95;106977;1268;22583;-80